ADDS TAF Board (Experimental) INFO Settings
IDs: Format: Expanded Condensed

KFLL - Ft Lauderdale-Hollyw, FL, US

Issued at 0258 UTC 03 May 2016
Updated at: 0308 UTC 03 May 2016
Time0253Z 03/04Z 03/05Z 03/06Z 03/07Z 03/08Z 03/09Z 03/10Z 03/11Z 03/12Z 03/13Z 03/14Z 03/15Z 03/16Z
Type OBS PRVL PRVL PRVL PRVL PRVL PRVL PRVL PRVL PRVL PRVL PRVL PRVL PRVL
VIS 10 >6 >6 >6 >6 >6 >6 >6 >6 >6 >6 >6 >6 >6
CIG -- -- -- -- -- -- -- -- -- -- 50 50 50 50
Cover FEW SCT SCT SCT SCT SCT SCT SCT SCT SCT BKN BKN BKN BKN
FltCat VFR VFR VFR VFR VFR VFR VFR VFR VFR VFR VFR VFR VFR VFR
WX -- -- -- -- -- -- -- -- -- -- VCSH VCSH VCSH VCSH
WDir 140 130 130 130 130 130 130 130 130 130 170 170 170 170
WSpd 12 10 10 10 10 10 10 10 10 10 12 12 12 12
WGst -- -- -- -- -- -- -- -- -- -- -- -- -- --
R10/28
XWnd -9 -6 -6 -6 -6 -6 -6 -6 -6 -6 -12 -12 -12 -12
HWnd 8 8 8 8 8 8 8 8 8 8 2 2 2 2

NOTE: TEMPO conditions in [brackets]. Keep in mind TEMPO conditions might be better (lower impact) than prevailing conditions.

Raw TAF
KFLL 030258Z 0303/0324 13010KT P6SM SCT020 SCT250
  FM031300 17012KT P6SM VCSH SCT025 BKN050


Raw METAR
KFLL 030253Z 14012KT 10SM FEW019 27/23 A3001 RMK AO2 SLP160 T02670228 51013
KFLL 030212Z 13014KT 10SM FEW018 SCT025 27/22 A3000 RMK AO2 T02720222
KFLL 030202Z 13012KT 10SM FEW020 BKN025 27/22 A2999 RMK AO2 T02720222
KFLL 030156Z 13014KT 10SM FEW019 SCT025 27/22 A2999 RMK AO2 T02720222
KFLL 030153Z 13014KT 10SM SCT019 BKN025 27/22 A3000 RMK AO2 SLP157 T02720222
KFLL 030053Z 12013KT 10SM SCT019 BKN024 27/22 A2999 RMK AO2 SLP155 T02720222
KFLL 030045Z 13013KT 10SM SCT019 BKN024 27/23 A2998 RMK AO2 T02720228

METAR Board
Radar Display
Forecast Discussion

TAF Board Legend

Potential Impact
Threat None Slight Moderate High
Visibility (sm) ≥5.1 5.1>X≥3 3>X≥1 <1
Ceiling (100 ft) ≥30.1 30.1>X≥10 10>X≥5 <5
Wind Speed (kt) <10 10≤X<20 20≤X<30 ≥30
Wind Gust (kt) <15 15≤X<25 25≤X<35 ≥35
Weather No Wx Reported VCTS,-TS,-FZRA,SN TS,FZRA +TS,+FZRA,+SN